Kezdőlap
METAR-TAF:

METAR-TAF

Repülőterek :

Zsolna, Szlovákia

földrajzi szélesség: 49-14N, földrajzi hosszúság: 018-36-49E, magasság: 312 m

Jelenlegi meteorológiai megfigyelések

A jelentés 41 perccel ezelõtt készült, 06:00 UTC
Észak-északkeleti szél 5 kt
Hőmérséklet -3°C
Páratartalom 68%
Légköri nyomás 1017 hPa
Látótávolság 10 km, vagy több
felhőtlen 1500 m magasságban, és nincs gomolyfelhõ

METAR: LZZI 230600Z 03005KT CAVOK M03/M08 Q1017

Idő: 07:41 (06:41 UTC)

Előrejelzés

A jelentés 1 órával és 41 perccel ezelõtt készült, 05:00 UTC
Az előrejelzés 23-én 06 óra UTC és 23-én 15 óra UTC között érvényes
Északkeleti szél 8 kt
Látótávolság 10 km, vagy több
Kevés felhő 3000 lábon
Szakadozott felhőzet 8000 lábon
23-én 06 óra UTC és 23-én 12 óra UTC között ideiglenes
Szakadozott felhőzet 2000 lábon
enyhe havazás

TAF: LZZI 230500Z 2306/2315 04008KT 9999 FEW030 BKN080 TEMPO 2306/2312 -SN BKN020

Meteorológiai megfigyelések és előrejelzések több, mint 4000 repülőtéren (METAR és TAF jelentéseket).

A térképen piros és sárga pontok jelzik az elérhető meteorológiai állomásokat.

Mozgassa az egeret a pont fölött, hogy megjelenjen az állomás neve.

Azután kattintson az időjárási megfigyelések és előrejelzések megtekintéséhez.

A térkép megváltoztatása: kattintson a fekete keresztel jelölt zöld gombra ráközelítéshez, a vonallal jelölt zöld gombra távolításhoz, vagy a zöld nyilakra a szomszédos térképek eléréséhez.


METAR-TAF: